Time;durP1;ratioP1;P1;durP2;ratioP2;P2;SDS_P1;SDS_P2;PMS_P1;PMS_P2;Temp;Humidity;BMP_temperature;BMP_pressure;BME280_temperature;BME280_humidity;BME280_pressure;Samples;Min_cycle;Max_cycle;Signal;HPM_P1;HPM_P2
2023/10/30 00:00:08;;;;;;;12.40;8.57;;;12.50;99.90;;;;;;5028380;28;20147;-77
2023/10/30 00:02:35;;;;;;;12.73;8.35;;;12.50;99.90;;;;;;5034372;28;20628;-76
2023/10/30 00:05:01;;;;;;;11.18;8.02;;;12.50;99.90;;;;;;5036993;28;20037;-77
2023/10/30 00:07:27;;;;;;;13.40;8.32;;;12.60;99.90;;;;;;5045387;28;20363;-77
2023/10/30 00:09:53;;;;;;;10.88;7.13;;;12.60;99.90;;;;;;5046675;28;20572;-77
2023/10/30 00:12:19;;;;;;;13.77;7.43;;;12.60;99.90;;;;;;5046434;28;20044;-77
2023/10/30 00:14:45;;;;;;;12.23;7.70;;;12.60;99.90;;;;;;5042073;28;20051;-76
2023/10/30 00:17:11;;;;;;;13.13;7.72;;;12.70;99.90;;;;;;5035223;28;20033;-76
2023/10/30 00:19:37;;;;;;;13.07;7.53;;;12.70;99.90;;;;;;5035237;28;20483;-76
2023/10/30 00:22:02;;;;;;;10.60;7.20;;;12.70;99.90;;;;;;5036995;28;20479;-76
2023/10/30 00:24:29;;;;;;;11.18;7.68;;;12.70;99.90;;;;;;5039584;28;20021;-76
2023/10/30 00:26:55;;;;;;;8.73;6.63;;;12.70;99.90;;;;;;5043772;28;20026;-76
2023/10/30 00:29:21;;;;;;;12.85;6.97;;;12.70;99.90;;;;;;5033072;28;20033;-76
2023/10/30 00:31:47;;;;;;;13.40;8.10;;;12.70;99.90;;;;;;5046752;28;20033;-75
2023/10/30 00:34:13;;;;;;;58.28;12.55;;;12.70;99.90;;;;;;5046668;28;20048;-76
2023/10/30 00:36:39;;;;;;;13.48;8.88;;;12.60;99.90;;;;;;5040048;28;20099;-76
2023/10/30 00:39:05;;;;;;;289.08;41.17;;;12.60;99.90;;;;;;5045335;28;20136;-77
2023/10/30 00:41:31;;;;;;;16.77;9.90;;;12.50;99.90;;;;;;5035901;28;20036;-76
2023/10/30 00:43:57;;;;;;;142.05;22.48;;;12.60;99.90;;;;;;5041577;28;20030;-76
2023/10/30 00:46:23;;;;;;;67.43;15.88;;;12.50;99.90;;;;;;5031256;28;20116;-76
2023/10/30 00:48:48;;;;;;;15.15;9.82;;;12.50;99.90;;;;;;5047273;28;20465;-76
2023/10/30 00:51:15;;;;;;;11.38;8.98;;;12.50;99.90;;;;;;5035442;28;20037;-77
2023/10/30 00:53:41;;;;;;;11.88;8.57;;;12.50;99.90;;;;;;5037931;28;20033;-76
2023/10/30 00:56:07;;;;;;;10.57;7.85;;;12.60;99.90;;;;;;5045996;28;20033;-77
2023/10/30 00:58:34;;;;;;;10.02;7.15;;;12.60;99.90;;;;;;5047516;28;20025;-76
2023/10/30 01:00:59;;;;;;;9.98;7.32;;;12.60;99.90;;;;;;5037777;28;20837;-76
2023/10/30 01:03:25;;;;;;;10.25;6.93;;;12.60;99.90;;;;;;5030686;28;20072;-76
2023/10/30 01:05:58;;;;;;;10.80;7.18;;;12.60;99.90;;;;;;5045208;28;20391;-77
2023/10/30 01:08:27;;;;;;;9.52;6.57;;;12.70;99.90;;;;;;5037083;28;20083;-76
2023/10/30 01:10:56;;;;;;;11.90;6.65;;;12.70;99.90;;;;;;5039312;28;20040;-76
2023/10/30 01:13:23;;;;;;;8.23;6.05;;;12.70;99.90;;;;;;5029898;28;20487;-75
2023/10/30 01:15:55;;;;;;;154.40;20.85;;;12.70;99.90;;;;;;5037089;28;20057;-76
2023/10/30 01:18:20;;;;;;;869.70;103.95;;;12.70;99.90;;;;;;5045838;28;20025;-76
2023/10/30 01:20:49;;;;;;;195.95;26.85;;;12.60;99.90;;;;;;5039244;28;20033;-77
2023/10/30 01:23:16;;;;;;;327.83;36.97;;;12.50;99.90;;;;;;5035977;28;20039;-76
2023/10/30 01:25:41;;;;;;;109.28;19.58;;;12.40;99.90;;;;;;5034573;28;20091;-76
2023/10/30 01:28:07;;;;;;;137.90;18.30;;;12.40;99.90;;;;;;5043790;28;20037;-76
2023/10/30 01:30:33;;;;;;;11.57;7.70;;;12.40;99.90;;;;;;5042541;28;20038;-76
2023/10/30 01:32:59;;;;;;;123.70;15.60;;;12.40;99.90;;;;;;5038359;28;20040;-77
2023/10/30 01:35:25;;;;;;;44.63;12.48;;;12.40;99.90;;;;;;5033569;28;20495;-76
2023/10/30 01:37:51;;;;;;;54.70;12.10;;;12.40;99.90;;;;;;5035486;28;20033;-77
2023/10/30 01:40:16;;;;;;;14.27;8.95;;;12.30;99.90;;;;;;5040244;28;20047;-76
2023/10/30 01:42:42;;;;;;;12.32;8.18;;;12.30;99.90;;;;;;5041573;28;20459;-76
2023/10/30 01:45:08;;;;;;;12.88;8.30;;;12.40;99.90;;;;;;5035288;28;20064;-77
2023/10/30 01:47:34;;;;;;;13.60;8.57;;;12.40;99.90;;;;;;5039831;28;20367;-77
2023/10/30 01:50:01;;;;;;;17.58;9.05;;;12.40;99.90;;;;;;5038254;28;20079;-76
2023/10/30 01:52:29;;;;;;;12.50;8.02;;;12.50;99.90;;;;;;5036779;28;20037;-76
2023/10/30 01:54:56;;;;;;;13.15;8.50;;;12.50;99.90;;;;;;5028953;28;20533;-76
2023/10/30 01:57:23;;;;;;;12.43;7.75;;;12.50;99.90;;;;;;5036223;28;20064;-78
2023/10/30 01:59:50;;;;;;;10.85;7.68;;;12.50;99.90;;;;;;5039962;28;20394;-76
2023/10/30 02:02:19;;;;;;;11.40;7.63;;;12.50;99.90;;;;;;5046304;28;20116;-76
2023/10/30 02:04:45;;;;;;;11.25;7.85;;;12.60;99.90;;;;;;5047242;28;20474;-76
2023/10/30 02:07:11;;;;;;;12.50;7.93;;;12.50;99.90;;;;;;5032496;28;20036;-77
2023/10/30 02:09:37;;;;;;;11.77;8.43;;;12.50;99.90;;;;;;5036807;28;20025;-77
2023/10/30 02:12:03;;;;;;;13.27;9.20;;;12.60;99.90;;;;;;5040847;28;20487;-76
2023/10/30 02:14:29;;;;;;;560.05;68.55;;;12.60;99.90;;;;;;5035071;28;20049;-76
2023/10/30 02:16:54;;;;;;;203.68;27.45;;;12.50;99.90;;;;;;5043319;28;20028;-76
2023/10/30 02:19:25;;;;;;;65.50;14.15;;;12.40;99.90;;;;;;5029974;28;20057;-75
2023/10/30 02:21:55;;;;;;;101.70;16.77;;;12.30;99.90;;;;;;5027336;28;20052;-76
2023/10/30 02:24:21;;;;;;;26.20;10.45;;;12.30;99.90;;;;;;5027672;28;20126;-76
2023/10/30 02:26:48;;;;;;;26.33;11.38;;;12.30;99.90;;;;;;5035102;28;20386;-76
2023/10/30 02:29:14;;;;;;;53.72;16.80;;;12.40;99.90;;;;;;5038791;28;20086;-75
2023/10/30 02:31:40;;;;;;;24.55;11.13;;;12.40;99.90;;;;;;5037176;28;20471;-76
2023/10/30 02:34:06;;;;;;;18.35;11.13;;;12.40;99.90;;;;;;5036816;28;20055;-76
2023/10/30 02:36:32;;;;;;;13.82;9.90;;;12.40;99.90;;;;;;5035564;28;20025;-76
2023/10/30 02:38:58;;;;;;;14.30;10.13;;;12.40;99.90;;;;;;5036420;28;20023;-76
2023/10/30 02:41:24;;;;;;;12.88;8.88;;;12.40;99.90;;;;;;5045126;28;20533;-76
2023/10/30 02:43:49;;;;;;;12.80;9.93;;;12.40;99.90;;;;;;5039724;28;20387;-76
2023/10/30 02:46:15;;;;;;;16.05;9.75;;;12.40;99.90;;;;;;5046573;28;20488;-76
2023/10/30 02:48:40;;;;;;;12.63;9.18;;;12.40;99.90;;;;;;5045083;28;20079;-76
2023/10/30 02:51:06;;;;;;;12.65;10.18;;;12.40;99.90;;;;;;5039590;28;20033;-76
2023/10/30 02:53:32;;;;;;;14.43;9.45;;;12.40;99.90;;;;;;5039979;28;20491;-76
2023/10/30 02:55:59;;;;;;;13.80;10.15;;;12.40;99.90;;;;;;5050689;28;20033;-77
2023/10/30 02:58:24;;;;;;;99.75;18.15;;;12.40;99.90;;;;;;5035502;28;20033;-77
2023/10/30 03:00:54;;;;;;;16.48;9.93;;;12.40;99.90;;;;;;5039282;28;20053;-76
2023/10/30 03:03:19;;;;;;;13.75;9.73;;;12.30;99.90;;;;;;5029090;28;20402;-76
2023/10/30 03:05:45;;;;;;;16.30;9.73;;;12.30;99.90;;;;;;5046315;28;20028;-76
2023/10/30 03:08:11;;;;;;;13.43;10.27;;;12.30;99.90;;;;;;5047271;28;20025;-76
2023/10/30 03:10:40;;;;;;;13.32;10.20;;;12.30;99.90;;;;;;5038594;28;20030;-76
2023/10/30 03:13:06;;;;;;;15.27;10.02;;;12.40;99.90;;;;;;5038006;28;20051;-76
2023/10/30 03:15:31;;;;;;;12.30;9.80;;;12.40;99.90;;;;;;5038987;28;20487;-76
2023/10/30 03:17:57;;;;;;;11.38;8.15;;;12.40;99.90;;;;;;5043427;28;20041;-76
2023/10/30 03:20:22;;;;;;;11.05;8.70;;;12.40;99.90;;;;;;5042456;28;20078;-75
2023/10/30 03:22:48;;;;;;;14.10;9.23;;;12.40;99.90;;;;;;5036111;28;20057;-76
2023/10/30 03:25:15;;;;;;;12.95;8.27;;;12.50;99.90;;;;;;5038337;28;20395;-76
2023/10/30 03:27:41;;;;;;;13.27;8.98;;;12.50;99.90;;;;;;5034818;28;20045;-76
2023/10/30 03:30:07;;;;;;;12.32;8.52;;;12.50;99.90;;;;;;5037070;28;20379;-76
2023/10/30 03:32:33;;;;;;;12.15;8.70;;;12.50;99.90;;;;;;5042788;28;20048;-77
2023/10/30 03:34:59;;;;;;;11.20;8.50;;;12.40;99.90;;;;;;5058674;28;20034;-77
2023/10/30 03:37:25;;;;;;;14.45;9.43;;;12.40;99.90;;;;;;5049734;28;20037;-75
2023/10/30 03:39:50;;;;;;;114.75;21.13;;;12.40;99.90;;;;;;5041291;28;20104;-76
2023/10/30 03:42:16;;;;;;;101.95;19.65;;;12.30;99.90;;;;;;5016122;28;20683;-76
2023/10/30 03:44:43;;;;;;;16.10;10.05;;;12.30;99.90;;;;;;5037044;28;20032;-77
2023/10/30 03:47:08;;;;;;;11.40;8.43;;;12.30;99.90;;;;;;5038662;28;20025;-76
2023/10/30 03:49:34;;;;;;;12.25;8.23;;;12.30;99.90;;;;;;5037697;28;20039;-77
2023/10/30 03:52:00;;;;;;;12.52;8.15;;;12.40;99.90;;;;;;5043333;28;20029;-76
2023/10/30 03:54:25;;;;;;;14.68;9.70;;;12.40;99.90;;;;;;5037185;28;20540;-76
2023/10/30 03:56:51;;;;;;;15.15;8.95;;;12.40;99.90;;;;;;5024335;28;20043;-77
2023/10/30 03:59:16;;;;;;;14.32;9.40;;;12.40;99.90;;;;;;5039819;28;20060;-77
2023/10/30 04:01:42;;;;;;;14.32;8.70;;;12.40;99.90;;;;;;5041144;28;20063;-76
2023/10/30 04:04:08;;;;;;;9.35;6.90;;;12.40;99.90;;;;;;5045641;28;20064;-77
2023/10/30 04:06:37;;;;;;;12.25;7.03;;;12.40;99.90;;;;;;5038259;28;20101;-78
2023/10/30 04:09:07;;;;;;;12.23;7.78;;;12.40;99.90;;;;;;5031095;28;20068;-78
2023/10/30 04:11:33;;;;;;;10.35;7.47;;;12.40;99.90;;;;;;5042429;28;20025;-77
2023/10/30 04:13:59;;;;;;;12.68;7.95;;;12.40;99.90;;;;;;5041778;28;20483;-77
2023/10/30 04:16:25;;;;;;;170.52;22.88;;;12.40;99.90;;;;;;5037882;28;20043;-77
2023/10/30 04:18:51;;;;;;;43.80;11.18;;;12.30;99.90;;;;;;5036779;28;20079;-77
2023/10/30 04:21:16;;;;;;;898.63;101.00;;;12.30;99.90;;;;;;5028316;28;20033;-78
2023/10/30 04:23:43;;;;;;;42.63;12.50;;;12.20;99.90;;;;;;5033171;28;20025;-76
2023/10/30 04:26:09;;;;;;;108.22;19.58;;;12.20;99.90;;;;;;5015113;28;20030;-78
2023/10/30 04:28:36;;;;;;;1626.97;218.30;;;12.10;99.90;;;;;;5033867;28;20501;-78
2023/10/30 04:31:04;;;;;;;216.32;31.17;;;12.10;99.90;;;;;;5038250;28;20406;-76
2023/10/30 04:33:29;;;;;;;51.20;13.93;;;12.10;99.90;;;;;;5032539;28;20043;-77
2023/10/30 04:35:55;;;;;;;53.63;13.35;;;12.00;99.90;;;;;;5039779;28;20104;-77
2023/10/30 04:38:24;;;;;;;12.95;7.78;;;12.10;99.90;;;;;;5038897;28;20525;-77
2023/10/30 04:40:50;;;;;;;10.50;8.10;;;12.10;99.90;;;;;;5047154;28;20036;-77
2023/10/30 04:43:15;;;;;;;12.15;7.40;;;12.10;99.90;;;;;;5037795;28;20034;-77
2023/10/30 04:45:41;;;;;;;17.63;8.55;;;12.20;99.90;;;;;;5035023;28;20052;-77
2023/10/30 04:48:07;;;;;;;9.75;7.40;;;12.20;99.90;;;;;;5035986;28;20037;-77
2023/10/30 04:50:32;;;;;;;10.95;7.45;;;12.20;99.90;;;;;;5034355;28;20113;-78
2023/10/30 04:52:58;;;;;;;10.77;7.25;;;12.20;99.90;;;;;;5028790;28;20517;-76
2023/10/30 04:55:24;;;;;;;17.05;13.35;;;12.30;99.90;;;;;;5029215;28;20033;-76
2023/10/30 04:57:50;;;;;;;11.10;7.90;;;12.30;99.90;;;;;;5034186;28;20025;-78
2023/10/30 05:00:15;;;;;;;12.90;8.10;;;12.30;99.90;;;;;;5026078;28;20108;-78
2023/10/30 05:02:42;;;;;;;11.77;8.70;;;12.30;99.90;;;;;;5040993;28;20039;-77
2023/10/30 05:05:08;;;;;;;43.45;33.53;;;12.30;99.90;;;;;;5033656;28;20017;-77
2023/10/30 05:07:34;;;;;;;46.30;20.00;;;12.30;99.90;;;;;;5035901;28;20036;-78
2023/10/30 05:09:59;;;;;;;193.05;26.55;;;12.20;99.90;;;;;;5039399;28;20025;-77
2023/10/30 05:12:25;;;;;;;283.65;32.22;;;12.10;99.90;;;;;;5037094;28;20561;-77
2023/10/30 05:14:51;;;;;;;19.38;9.90;;;12.10;99.90;;;;;;5033395;28;20033;-75
2023/10/30 05:17:17;;;;;;;10.82;7.43;;;12.10;99.90;;;;;;5033084;28;20063;-77
2023/10/30 05:19:43;;;;;;;9.65;7.45;;;12.10;99.90;;;;;;5043594;28;20115;-78
2023/10/30 05:22:09;;;;;;;70.10;25.50;;;12.20;99.90;;;;;;5036837;28;20123;-76
2023/10/30 05:24:34;;;;;;;486.40;79.72;;;12.20;99.90;;;;;;5035716;28;20041;-77
2023/10/30 05:27:00;;;;;;;143.82;47.75;;;12.20;99.90;;;;;;5036358;28;20033;-77
2023/10/30 05:29:25;;;;;;;679.13;85.93;;;12.10;99.90;;;;;;5030732;28;20022;-77
2023/10/30 05:31:51;;;;;;;1041.88;154.95;;;12.10;99.90;;;;;;5036781;28;20033;-78
2023/10/30 05:34:17;;;;;;;350.33;70.88;;;12.00;99.90;;;;;;5030685;28;20029;-77
2023/10/30 05:36:42;;;;;;;333.90;44.95;;;12.00;99.90;;;;;;5042023;28;20032;-77
2023/10/30 05:39:08;;;;;;;486.02;59.25;;;12.00;99.90;;;;;;5044824;28;20036;-77
2023/10/30 05:41:34;;;;;;;188.63;27.48;;;12.00;99.90;;;;;;5038803;28;20029;-77
2023/10/30 05:43:59;;;;;;;113.55;24.45;;;11.90;99.90;;;;;;5034567;28;20033;-77
2023/10/30 05:46:25;;;;;;;385.35;46.35;;;12.00;99.90;;;;;;5032381;28;20025;-77
2023/10/30 05:48:51;;;;;;;264.25;37.22;;;11.90;99.90;;;;;;5038282;28;20533;-77
2023/10/30 05:51:16;;;;;;;130.45;24.67;;;11.90;99.90;;;;;;5039975;28;20448;-77
2023/10/30 05:53:43;;;;;;;211.13;27.85;;;12.00;99.90;;;;;;5032163;28;20033;-77
2023/10/30 05:56:08;;;;;;;261.60;32.80;;;12.00;99.90;;;;;;5031641;28;20028;-77
2023/10/30 05:58:34;;;;;;;71.07;13.00;;;11.90;99.90;;;;;;5041808;28;20462;-78
2023/10/30 06:00:59;;;;;;;13.27;9.95;;;11.90;99.90;;;;;;5034361;28;20689;-78
2023/10/30 06:03:25;;;;;;;97.18;18.27;;;12.00;99.90;;;;;;5037579;28;20044;-78
2023/10/30 06:05:51;;;;;;;18.52;10.35;;;12.00;99.90;;;;;;5036085;28;20021;-77
2023/10/30 06:08:22;;;;;;;14.52;12.30;;;12.00;99.90;;;;;;5027556;28;20075;-77
2023/10/30 06:10:47;;;;;;;10.95;7.45;;;12.00;99.90;;;;;;5038082;28;20126;-77
2023/10/30 06:13:13;;;;;;;13.68;10.25;;;12.10;99.90;;;;;;5035767;28;20067;-77
2023/10/30 06:15:39;;;;;;;10.88;7.38;;;12.20;99.90;;;;;;5021071;28;20747;-78
2023/10/30 06:18:05;;;;;;;10.98;8.30;;;12.20;99.90;;;;;;5040669;28;20047;-78
2023/10/30 06:20:31;;;;;;;10.98;8.55;;;12.20;99.90;;;;;;5040488;28;20358;-79
2023/10/30 06:22:57;;;;;;;11.73;8.20;;;12.20;99.90;;;;;;5033128;28;20647;-78
2023/10/30 06:25:26;;;;;;;12.23;8.25;;;12.20;99.90;;;;;;5042892;28;20040;-78
2023/10/30 06:27:53;;;;;;;10.10;7.57;;;12.20;99.90;;;;;;5032976;28;20032;-77
2023/10/30 06:30:18;;;;;;;9.15;7.10;;;12.30;99.90;;;;;;5028159;28;20033;-78
2023/10/30 06:32:44;;;;;;;9.93;7.18;;;12.30;99.90;;;;;;5037153;28;20044;-78
2023/10/30 06:35:10;;;;;;;9.13;6.72;;;12.30;99.90;;;;;;5031666;28;20510;-78
2023/10/30 06:37:36;;;;;;;9.70;6.30;;;12.40;99.90;;;;;;5035442;28;20032;-76
2023/10/30 06:40:03;;;;;;;20.48;8.57;;;12.40;99.90;;;;;;5039025;28;20051;-79
2023/10/30 06:42:29;;;;;;;262.30;39.35;;;12.40;99.90;;;;;;5029747;28;20048;-78
2023/10/30 06:44:55;;;;;;;12.77;9.93;;;12.30;99.90;;;;;;5040678;28;20029;-78
2023/10/30 06:47:21;;;;;;;14.00;9.90;;;12.20;99.90;;;;;;5039661;28;20036;-78
2023/10/30 06:49:46;;;;;;;11.20;8.93;;;12.30;99.90;;;;;;5039800;28;20375;-76
2023/10/30 06:52:12;;;;;;;325.60;39.30;;;12.30;99.90;;;;;;5038106;28;20064;-76
2023/10/30 06:54:38;;;;;;;18.35;11.55;;;12.30;99.90;;;;;;5039136;28;20643;-78
2023/10/30 06:57:04;;;;;;;23.95;12.15;;;12.20;99.90;;;;;;5045918;28;20036;-78
2023/10/30 06:59:30;;;;;;;16.60;10.30;;;12.20;99.90;;;;;;5044364;28;20028;-78
2023/10/30 07:01:56;;;;;;;15.18;9.45;;;12.20;99.90;;;;;;5031162;28;20059;-78
2023/10/30 07:04:24;;;;;;;13.75;10.35;;;12.20;99.90;;;;;;5033563;28;20025;-77
2023/10/30 07:06:50;;;;;;;103.25;21.98;;;12.20;99.90;;;;;;5031809;28;20083;-77
2023/10/30 07:09:17;;;;;;;454.75;56.70;;;12.20;99.90;;;;;;5040803;28;20502;-80
2023/10/30 07:11:43;;;;;;;419.85;52.50;;;12.00;99.90;;;;;;5038222;28;20030;-77
2023/10/30 07:14:09;;;;;;;15.48;8.98;;;12.00;99.90;;;;;;5041160;28;20568;-78
2023/10/30 07:16:36;;;;;;;13.75;8.65;;;12.10;99.90;;;;;;5035855;28;20065;-79
2023/10/30 07:19:02;;;;;;;9.85;8.23;;;12.20;99.90;;;;;;5045373;28;20075;-78
2023/10/30 07:21:28;;;;;;;17.02;8.05;;;12.30;99.90;;;;;;5043547;28;20029;-78
2023/10/30 07:23:54;;;;;;;10.95;8.50;;;12.50;99.90;;;;;;5031976;28;20100;-77
2023/10/30 07:26:21;;;;;;;15.38;10.98;;;12.60;99.90;;;;;;5028266;28;20072;-78
2023/10/30 07:28:48;;;;;;;16.10;11.00;;;12.50;99.90;;;;;;5035131;28;20040;-78
2023/10/30 07:31:14;;;;;;;115.32;21.83;;;12.50;99.90;;;;;;5045237;28;20119;-77
2023/10/30 07:33:40;;;;;;;553.40;85.60;;;12.60;99.90;;;;;;5041126;28;20051;-78
2023/10/30 07:36:06;;;;;;;134.57;24.88;;;12.40;99.90;;;;;;5035011;28;20041;-78
2023/10/30 07:38:32;;;;;;;25.95;12.50;;;12.30;99.90;;;;;;5047250;28;20025;-77
2023/10/30 07:40:57;;;;;;;66.90;15.07;;;12.20;99.90;;;;;;5033391;28;20120;-77
2023/10/30 07:43:23;;;;;;;12.43;9.85;;;12.20;99.90;;;;;;5042186;28;20063;-77
2023/10/30 07:45:50;;;;;;;13.80;10.38;;;12.30;99.90;;;;;;5046855;28;20039;-79
2023/10/30 07:48:16;;;;;;;13.63;9.23;;;12.40;99.90;;;;;;5053706;28;20115;-79
2023/10/30 07:50:45;;;;;;;13.32;9.75;;;12.50;99.90;;;;;;5050270;28;20047;-78
2023/10/30 07:53:11;;;;;;;11.35;8.88;;;12.50;99.90;;;;;;5034451;28;20040;-78
2023/10/30 07:55:39;;;;;;;644.13;95.00;;;12.50;99.90;;;;;;5042860;28;20131;-78
2023/10/30 07:58:05;;;;;;;459.90;62.47;;;12.60;99.90;;;;;;5036004;28;20699;-78
2023/10/30 08:00:32;;;;;;;579.35;76.80;;;12.30;99.90;;;;;;5035761;28;20106;-77
2023/10/30 08:02:59;;;;;;;90.93;20.88;;;12.20;99.90;;;;;;5022680;28;20045;-78
2023/10/30 08:05:25;;;;;;;127.05;26.70;;;12.10;99.90;;;;;;5038365;28;20039;-77
2023/10/30 08:07:51;;;;;;;365.25;50.75;;;12.10;99.90;;;;;;5041459;28;20028;-77
2023/10/30 08:10:17;;;;;;;15.82;11.90;;;12.10;99.90;;;;;;5031810;28;20029;-77
2023/10/30 08:12:42;;;;;;;78.70;18.08;;;12.10;99.90;;;;;;5036679;28;20064;-78
2023/10/30 08:15:08;;;;;;;227.52;33.35;;;12.10;99.90;;;;;;5042059;28;20116;-77
2023/10/30 08:17:34;;;;;;;22.63;13.52;;;12.10;99.90;;;;;;5038170;28;20033;-78
2023/10/30 08:20:00;;;;;;;19.55;13.50;;;12.20;99.90;;;;;;5027170;28;20041;-77
2023/10/30 08:22:25;;;;;;;23.50;14.32;;;12.20;99.90;;;;;;5033388;28;20037;-77
2023/10/30 08:24:51;;;;;;;13.15;10.48;;;12.30;99.90;;;;;;5030238;28;20406;-79
2023/10/30 08:27:17;;;;;;;12.65;10.25;;;12.30;99.90;;;;;;5031742;28;20059;-78
2023/10/30 08:29:43;;;;;;;515.42;76.65;;;12.50;99.90;;;;;;5042442;28;20060;-78
2023/10/30 08:32:09;;;;;;;100.18;21.85;;;12.50;99.90;;;;;;5038398;28;20056;-77
2023/10/30 08:34:35;;;;;;;19.30;14.18;;;12.40;99.90;;;;;;5036315;28;20176;-77
2023/10/30 08:37:00;;;;;;;173.85;33.70;;;12.40;99.90;;;;;;5042206;28;20068;-78
2023/10/30 08:39:26;;;;;;;37.25;15.15;;;12.40;99.90;;;;;;5032520;28;20548;-78
2023/10/30 08:41:52;;;;;;;33.28;15.38;;;12.40;99.90;;;;;;5035533;28;20040;-78
2023/10/30 08:44:18;;;;;;;17.85;11.90;;;12.40;99.90;;;;;;5035246;28;20056;-77
2023/10/30 08:46:44;;;;;;;18.08;11.98;;;12.40;99.90;;;;;;5034940;28;20522;-77
2023/10/30 08:49:10;;;;;;;13.48;8.05;;;12.40;99.90;;;;;;5033770;28;20120;-77
2023/10/30 08:51:42;;;;;;;9.75;6.30;;;12.40;99.90;;;;;;5027851;28;20052;-77
2023/10/30 08:54:08;;;;;;;8.05;5.50;;;12.50;99.90;;;;;;5030782;28;20045;-78
2023/10/30 08:56:34;;;;;;;8.13;4.63;;;12.60;99.90;;;;;;5028228;28;20033;-78
2023/10/30 08:59:03;;;;;;;753.35;106.78;;;12.70;99.90;;;;;;5037266;28;20418;-78
2023/10/30 09:01:32;;;;;;;743.10;96.43;;;12.60;99.90;;;;;;5045165;28;20044;-78
2023/10/30 09:03:58;;;;;;;216.60;35.75;;;12.40;99.90;;;;;;5042328;28;20025;-78
2023/10/30 09:06:24;;;;;;;624.67;85.90;;;12.40;99.90;;;;;;5032513;28;20159;-78
2023/10/30 09:08:50;;;;;;;414.00;56.80;;;12.50;99.90;;;;;;5034004;28;20887;-78
2023/10/30 09:11:15;;;;;;;28.27;12.25;;;12.50;99.90;;;;;;5018853;28;20036;-78
2023/10/30 09:13:41;;;;;;;9.75;7.65;;;12.50;99.90;;;;;;5029080;28;20042;-76
2023/10/30 09:16:08;;;;;;;12.70;8.07;;;12.50;99.90;;;;;;5031319;28;20109;-78
2023/10/30 09:18:35;;;;;;;11.15;7.75;;;12.60;99.90;;;;;;5042102;28;20499;-78
2023/10/30 09:21:00;;;;;;;10.02;7.18;;;12.70;99.90;;;;;;5041860;28;20059;-79
2023/10/30 09:23:26;;;;;;;11.48;7.70;;;12.70;99.90;;;;;;5039688;28;20584;-78
2023/10/30 09:25:52;;;;;;;10.43;7.93;;;12.90;99.90;;;;;;5031923;28;20033;-78
2023/10/30 09:28:18;;;;;;;11.20;8.63;;;13.00;99.90;;;;;;5038777;28;20105;-78
2023/10/30 09:30:44;;;;;;;11.43;7.47;;;13.00;99.90;;;;;;5043154;28;20379;-76
2023/10/30 09:33:10;;;;;;;32.47;12.85;;;13.20;99.90;;;;;;5039629;28;20029;-78
2023/10/30 09:35:37;;;;;;;90.78;19.05;;;13.00;99.90;;;;;;5034163;28;20087;-79
2023/10/30 09:38:04;;;;;;;269.17;39.15;;;13.00;99.90;;;;;;5041675;28;20524;-79
2023/10/30 09:40:30;;;;;;;16.38;12.18;;;12.90;99.90;;;;;;5040823;28;20037;-80
2023/10/30 09:42:56;;;;;;;42.35;14.48;;;12.90;99.90;;;;;;5033723;28;20035;-79
2023/10/30 09:45:26;;;;;;;23.90;12.68;;;12.90;99.90;;;;;;5040289;28;20036;-78
2023/10/30 09:47:56;;;;;;;14.50;11.38;;;12.90;99.90;;;;;;5035753;28;21022;-78
2023/10/30 09:50:24;;;;;;;17.83;12.88;;;13.00;99.90;;;;;;5040124;28;20447;-78
2023/10/30 09:52:52;;;;;;;14.13;12.02;;;13.10;99.90;;;;;;5032631;28;20045;-76
2023/10/30 09:55:19;;;;;;;18.23;12.68;;;13.20;99.90;;;;;;5034112;28;20028;-78
2023/10/30 09:57:48;;;;;;;20.45;14.48;;;13.30;99.90;;;;;;5041370;28;20070;-78
2023/10/30 10:00:16;;;;;;;14.18;11.90;;;13.30;99.90;;;;;;5039372;28;20025;-79
2023/10/30 10:02:42;;;;;;;18.00;12.40;;;13.40;99.90;;;;;;5041068;28;20021;-77
2023/10/30 10:05:12;;;;;;;17.52;11.85;;;13.40;99.90;;;;;;5033520;28;20025;-78
2023/10/30 10:07:38;;;;;;;15.07;10.82;;;13.40;99.90;;;;;;5040045;28;20028;-78
2023/10/30 10:10:08;;;;;;;29.67;14.05;;;13.40;99.90;;;;;;5040136;28;20088;-77
2023/10/30 10:12:36;;;;;;;29.10;13.52;;;13.40;99.90;;;;;;5035203;28;20166;-77
2023/10/30 10:15:08;;;;;;;13.10;10.30;;;13.20;99.90;;;;;;5034765;28;20371;-78
2023/10/30 10:17:48;;;;;;;12.25;8.93;;;13.10;99.90;;;;;;5024733;28;20060;-79
2023/10/30 10:20:14;;;;;;;9.27;6.57;;;13.10;99.90;;;;;;5038943;28;20113;-78
2023/10/30 10:22:40;;;;;;;10.10;7.38;;;13.20;99.90;;;;;;5027192;28;20029;-79
2023/10/30 10:25:18;;;;;;;9.27;7.43;;;13.30;99.90;;;;;;5027250;28;20040;-77
2023/10/30 10:27:44;;;;;;;9.18;6.50;;;13.50;99.90;;;;;;5027511;28;20693;-78
2023/10/30 10:30:10;;;;;;;10.65;7.10;;;13.50;99.90;;;;;;5036029;28;20132;-77
2023/10/30 10:32:37;;;;;;;11.43;8.82;;;13.50;99.90;;;;;;5040941;28;20120;-77
2023/10/30 10:35:05;;;;;;;30.30;12.05;;;13.50;99.90;;;;;;5027612;28;20472;-78
2023/10/30 10:37:32;;;;;;;17.90;10.15;;;13.40;99.90;;;;;;5036739;28;20502;-78
2023/10/30 10:39:59;;;;;;;12.65;9.73;;;13.30;99.90;;;;;;5036128;28;20037;-77
2023/10/30 10:42:26;;;;;;;11.68;9.00;;;13.30;99.90;;;;;;5031991;28;20065;-77
2023/10/30 10:44:53;;;;;;;10.60;9.00;;;13.40;99.90;;;;;;5030542;28;20423;-77
2023/10/30 10:47:20;;;;;;;11.50;9.63;;;13.50;99.90;;;;;;5039387;28;20550;-76
2023/10/30 10:49:46;;;;;;;156.18;31.25;;;13.50;99.90;;;;;;5036507;28;20029;-78
2023/10/30 10:52:14;;;;;;;292.92;37.75;;;13.30;99.90;;;;;;5027168;28;20170;-77
2023/10/30 10:55:05;;;;;;;16.95;10.27;;;13.30;99.90;;;;;;5040180;28;20072;-77
2023/10/30 10:57:54;;;;;;;11.82;9.48;;;13.20;99.90;;;;;;5034423;28;20024;-77
2023/10/30 11:00:22;;;;;;;12.43;9.93;;;13.40;99.90;;;;;;5040336;28;20348;-78
2023/10/30 11:02:49;;;;;;;12.18;9.13;;;13.40;99.90;;;;;;5041261;28;20630;-78
2023/10/30 11:05:16;;;;;;;14.18;10.18;;;13.60;99.90;;;;;;5040758;28;20043;-77
2023/10/30 11:07:55;;;;;;;12.70;10.48;;;13.60;99.90;;;;;;5036037;28;20068;-76
2023/10/30 11:10:29;;;;;;;13.07;9.50;;;13.70;99.90;;;;;;5040318;28;20037;-78
2023/10/30 11:13:03;;;;;;;13.65;11.20;;;13.80;99.90;;;;;;5034351;28;20041;-77
2023/10/30 11:15:34;;;;;;;18.42;15.73;;;13.70;99.90;;;;;;5038939;28;20033;-77
2023/10/30 11:18:16;;;;;;;9.55;6.38;;;13.60;99.90;;;;;;5036235;28;20052;-78
2023/10/30 11:20:43;;;;;;;13.93;10.85;;;13.50;99.90;;;;;;5033642;28;20074;-77
2023/10/30 11:23:14;;;;;;;11.32;9.23;;;13.50;99.90;;;;;;5034546;28;20052;-77
2023/10/30 11:25:42;;;;;;;11.75;7.90;;;13.50;99.90;;;;;;5041387;28;20100;-78
2023/10/30 11:28:07;;;;;;;9.90;8.00;;;13.50;99.90;;;;;;5042921;28;20040;-78
2023/10/30 11:30:42;;;;;;;12.40;7.65;;;13.40;99.90;;;;;;5033141;28;20029;-78
2023/10/30 11:33:26;;;;;;;15.23;11.55;;;13.40;99.90;;;;;;5036424;28;20041;-77
2023/10/30 11:36:20;;;;;;;12.38;9.05;;;13.40;99.90;;;;;;5032256;28;20119;-77
2023/10/30 11:38:48;;;;;;;8.48;6.82;;;13.30;99.90;;;;;;5042111;28;20047;-78
2023/10/30 11:41:17;;;;;;;12.32;10.15;;;13.30;99.90;;;;;;5043267;28;20033;-77
2023/10/30 11:43:44;;;;;;;11.52;8.00;;;13.30;99.90;;;;;;5042156;28;20025;-77
2023/10/30 11:46:13;;;;;;;10.05;5.75;;;13.40;99.90;;;;;;5044520;28;20025;-77
2023/10/30 11:48:40;;;;;;;10.30;5.80;;;13.40;99.90;;;;;;5036989;28;20108;-78
2023/10/30 11:51:08;;;;;;;13.88;8.90;;;13.50;99.90;;;;;;5041993;28;20370;-78
2023/10/30 11:53:34;;;;;;;12.88;7.50;;;13.60;99.90;;;;;;5046063;28;20521;-78
2023/10/30 11:56:00;;;;;;;9.75;7.55;;;13.60;99.90;;;;;;5038973;28;20029;-77
2023/10/30 11:58:27;;;;;;;12.25;7.20;;;13.40;99.90;;;;;;5040626;28;20028;-75
2023/10/30 12:00:53;;;;;;;11.50;7.53;;;13.40;99.90;;;;;;5034363;28;20670;-77
2023/10/30 12:03:19;;;;;;;54.22;14.20;;;13.40;99.90;;;;;;5042647;28;20112;-77
2023/10/30 12:05:45;;;;;;;508.02;59.78;;;13.30;99.90;;;;;;5035610;28;20582;-77
2023/10/30 12:08:11;;;;;;;276.20;31.73;;;13.10;99.90;;;;;;5038428;28;20462;-77
2023/10/30 12:10:39;;;;;;;8.30;5.38;;;13.10;99.90;;;;;;5032864;28;20041;-77
2023/10/30 12:13:07;;;;;;;6.78;2.67;;;13.30;99.90;;;;;;5035619;28;20526;-77
2023/10/30 12:15:34;;;;;;;6.60;2.38;;;13.70;99.90;;;;;;5040312;28;20030;-77
2023/10/30 12:17:59;;;;;;;6.53;3.60;;;13.90;99.90;;;;;;5033002;28;20179;-77
2023/10/30 12:20:25;;;;;;;83.35;16.25;;;14.00;99.90;;;;;;5034261;28;20112;-77
2023/10/30 12:22:54;;;;;;;86.20;15.00;;;13.50;99.90;;;;;;5028363;28;20120;-77
2023/10/30 12:25:21;;;;;;;139.45;21.27;;;13.40;99.90;;;;;;5045374;28;20036;-77
2023/10/30 12:27:47;;;;;;;11.55;8.23;;;13.20;99.90;;;;;;5035882;28;20041;-77